createdAt,value
2018-11-04T00:00:33.065Z,4.70
2018-11-04T00:01:36.433Z,4.70
2018-11-04T00:02:39.740Z,4.80
2018-11-04T00:03:43.103Z,4.80
2018-11-04T00:04:46.428Z,4.80
2018-11-04T00:05:49.878Z,4.90
2018-11-04T00:06:53.201Z,4.90
2018-11-04T00:07:56.598Z,4.80
2018-11-04T00:10:10.435Z,4.90
2018-11-04T00:11:13.787Z,4.90
2018-11-04T00:12:17.217Z,5.00
2018-11-04T00:13:20.856Z,5.00
2018-11-04T00:14:24.095Z,5.00
2018-11-04T00:15:27.411Z,5.00
2018-11-04T00:16:30.743Z,5.10
2018-11-04T00:17:34.107Z,5.00
2018-11-04T00:18:37.438Z,5.00
2018-11-04T00:19:40.771Z,5.00
2018-11-04T00:20:44.108Z,5.00
2018-11-04T00:21:47.451Z,5.00
2018-11-04T00:22:50.811Z,5.00
2018-11-04T00:23:54.208Z,5.00
2018-11-04T00:24:57.580Z,5.00
2018-11-04T00:26:00.939Z,5.10
2018-11-04T00:27:04.675Z,5.10
2018-11-04T00:28:07.974Z,5.10
2018-11-04T00:29:11.305Z,5.10
2018-11-04T00:30:15.533Z,5.20
2018-11-04T00:31:18.888Z,5.20
2018-11-04T00:32:22.232Z,5.20
2018-11-04T00:33:25.592Z,5.30
2018-11-04T00:34:28.910Z,5.20
2018-11-04T00:35:32.252Z,5.30
2018-11-04T00:36:35.632Z,5.30
2018-11-04T00:37:39.192Z,5.30
2018-11-04T00:38:42.551Z,5.40
2018-11-04T00:39:45.871Z,5.40
2018-11-04T00:40:49.258Z,5.40
2018-11-04T00:41:52.579Z,5.50
2018-11-04T00:42:55.883Z,5.50
2018-11-04T00:43:59.212Z,5.40
2018-11-04T00:45:02.575Z,5.40
2018-11-04T00:46:05.883Z,5.40
2018-11-04T00:47:09.199Z,5.40
2018-11-04T00:48:12.531Z,5.40
2018-11-04T00:49:15.867Z,5.40
2018-11-04T00:50:19.170Z,5.40
2018-11-04T00:51:22.494Z,5.40
2018-11-04T00:52:25.908Z,5.40
2018-11-04T00:53:29.223Z,5.40
2018-11-04T00:54:32.535Z,5.40
2018-11-04T00:55:35.851Z,5.50
2018-11-04T00:56:39.151Z,5.50
2018-11-04T00:57:42.519Z,5.60
2018-11-04T00:58:45.843Z,5.50
2018-11-04T00:59:49.155Z,5.60
2018-11-04T01:00:58.936Z,5.60
2018-11-04T01:02:02.299Z,5.70
2018-11-04T01:03:05.688Z,5.70
2018-11-04T01:04:09.010Z,5.70
2018-11-04T01:05:12.326Z,5.70
2018-11-04T01:06:15.691Z,5.70
2018-11-04T01:07:19.022Z,5.70
2018-11-04T01:08:22.345Z,5.80
2018-11-04T01:09:25.651Z,5.70
2018-11-04T01:10:29.003Z,5.80
2018-11-04T01:11:32.335Z,5.80
2018-11-04T01:12:35.662Z,5.80
2018-11-04T01:13:38.968Z,5.80
2018-11-04T01:14:42.321Z,5.80
2018-11-04T01:15:45.688Z,5.70
2018-11-04T01:16:49.011Z,5.70
2018-11-04T01:17:52.315Z,5.70
2018-11-04T01:18:55.626Z,5.70
2018-11-04T01:19:59.047Z,5.70
2018-11-04T01:21:02.457Z,5.70
2018-11-04T01:22:05.781Z,5.70
2018-11-04T01:23:09.107Z,5.70
2018-11-04T01:24:12.523Z,5.60
2018-11-04T01:25:15.838Z,5.60
2018-11-04T01:26:19.191Z,5.60
2018-11-04T01:27:22.580Z,5.60
2018-11-04T01:28:25.903Z,5.60
2018-11-04T01:29:29.223Z,5.70
2018-11-04T01:30:32.543Z,5.60
2018-11-04T01:31:35.894Z,5.70
2018-11-04T01:32:39.244Z,5.70
2018-11-04T01:33:42.726Z,5.70
2018-11-04T01:34:46.068Z,5.70
2018-11-04T01:35:49.389Z,5.70
2018-11-04T01:36:52.767Z,5.70
2018-11-04T01:37:56.088Z,5.80
2018-11-04T01:38:59.409Z,5.80
2018-11-04T01:40:02.759Z,5.80
2018-11-04T01:41:06.107Z,5.90
2018-11-04T01:42:09.448Z,5.90
2018-11-04T01:43:12.778Z,6.00
2018-11-04T01:44:16.094Z,6.00
2018-11-04T01:45:19.450Z,6.00
2018-11-04T01:46:22.772Z,6.00
2018-11-04T01:47:26.099Z,6.00
2018-11-04T01:48:29.402Z,6.00
2018-11-04T01:49:32.720Z,6.10
2018-11-04T01:50:36.059Z,6.10
2018-11-04T01:51:39.369Z,6.10
2018-11-04T01:52:42.678Z,6.10
2018-11-04T01:53:46.033Z,6.00
2018-11-04T01:54:49.382Z,6.00
2018-11-04T01:55:52.696Z,6.00
2018-11-04T01:56:56.012Z,6.00
2018-11-04T01:57:59.332Z,6.00
2018-11-04T01:59:03.008Z,6.00
2018-11-04T02:00:10.278Z,6.00
2018-11-04T02:01:13.631Z,6.10
2018-11-04T02:02:16.979Z,6.00
2018-11-04T02:03:20.287Z,6.00
2018-11-04T02:04:23.635Z,6.00
2018-11-04T02:05:26.941Z,5.90
2018-11-04T02:06:30.254Z,5.90
2018-11-04T02:07:33.596Z,5.90
2018-11-04T02:08:36.907Z,5.90
2018-11-04T02:09:40.262Z,6.00
2018-11-04T02:10:43.572Z,6.00
2018-11-04T02:11:46.916Z,6.00
2018-11-04T02:12:50.228Z,6.00
2018-11-04T02:13:53.583Z,6.00
2018-11-04T02:14:57.052Z,5.90
2018-11-04T02:16:00.395Z,6.00
2018-11-04T02:17:03.756Z,5.90
2018-11-04T02:18:07.079Z,5.90
2018-11-04T02:19:10.416Z,5.90
2018-11-04T02:20:14.128Z,5.90
2018-11-04T02:21:17.443Z,5.90
2018-11-04T02:22:20.762Z,5.90
2018-11-04T02:23:24.105Z,5.90
2018-11-04T02:24:27.414Z,5.90
2018-11-04T02:25:30.752Z,5.90
2018-11-04T02:26:34.055Z,5.90
2018-11-04T02:27:37.398Z,6.00
2018-11-04T02:28:40.711Z,6.00
2018-11-04T02:29:44.023Z,6.00
2018-11-04T02:30:47.363Z,6.00
2018-11-04T02:31:50.674Z,6.10
2018-11-04T02:32:54.078Z,6.10
2018-11-04T02:33:57.420Z,6.10
2018-11-04T02:35:00.811Z,6.20
2018-11-04T02:36:04.157Z,6.20
2018-11-04T02:37:07.504Z,6.20
2018-11-04T02:38:10.827Z,6.20
2018-11-04T02:39:14.147Z,6.30
2018-11-04T02:40:17.502Z,6.20
2018-11-04T02:41:20.827Z,6.20
2018-11-04T02:42:24.139Z,6.20
2018-11-04T02:43:27.503Z,6.30
2018-11-04T02:44:30.896Z,6.30
2018-11-04T02:45:34.243Z,6.30
2018-11-04T02:46:37.597Z,6.20
2018-11-04T02:47:40.903Z,6.30
2018-11-04T02:48:44.227Z,6.20
2018-11-04T02:49:47.576Z,6.30
2018-11-04T02:50:50.896Z,6.30
2018-11-04T02:51:54.223Z,6.30
2018-11-04T02:52:57.549Z,6.30
2018-11-04T02:54:00.891Z,6.30
2018-11-04T02:55:04.312Z,6.30
2018-11-04T02:56:07.684Z,6.30
2018-11-04T02:57:11.011Z,6.30
2018-11-04T02:58:14.340Z,6.30
2018-11-04T02:59:17.659Z,6.30
2018-11-04T03:00:21.007Z,6.30
2018-11-04T03:01:24.355Z,6.30
2018-11-04T03:02:27.679Z,6.30
2018-11-04T03:03:31.065Z,6.30
2018-11-04T03:04:34.419Z,6.30
2018-11-04T03:05:37.759Z,6.30
2018-11-04T03:06:41.099Z,6.30
2018-11-04T03:07:44.467Z,6.30
2018-11-04T03:08:47.830Z,6.40
2018-11-04T03:09:51.187Z,6.40
2018-11-04T03:10:54.507Z,6.40
2018-11-04T03:11:57.831Z,6.50
2018-11-04T03:13:01.148Z,6.50
2018-11-04T03:14:04.521Z,6.40
2018-11-04T03:15:08.028Z,6.40
2018-11-04T03:16:11.353Z,6.40
2018-11-04T03:17:14.677Z,6.40
2018-11-04T03:18:18.071Z,6.40
2018-11-04T03:19:21.400Z,6.40
2018-11-04T03:20:24.720Z,6.40
2018-11-04T03:21:28.066Z,6.40
2018-11-04T03:22:31.412Z,6.40
2018-11-04T03:23:34.782Z,6.40
2018-11-04T03:24:38.183Z,6.50
2018-11-04T03:25:41.468Z,6.50
2018-11-04T03:26:44.879Z,6.50
2018-11-04T03:27:48.237Z,6.40
2018-11-04T03:28:51.581Z,6.40
2018-11-04T03:29:54.956Z,6.40
2018-11-04T03:30:58.301Z,6.40
2018-11-04T03:32:01.640Z,6.50
2018-11-04T03:33:05.242Z,6.50
2018-11-04T03:34:08.563Z,6.50
2018-11-04T03:35:11.927Z,6.50
2018-11-04T03:36:15.251Z,6.50
2018-11-04T03:37:18.567Z,6.50
2018-11-04T03:38:21.884Z,6.50
2018-11-04T03:39:25.247Z,6.50
2018-11-04T03:40:28.587Z,6.50
2018-11-04T03:41:31.914Z,6.50
2018-11-04T03:42:35.251Z,6.50
2018-11-04T03:43:38.629Z,6.50
2018-11-04T03:44:41.980Z,6.50
2018-11-04T03:45:45.300Z,6.60
2018-11-04T03:46:49.628Z,6.60
2018-11-04T03:47:52.950Z,6.60
2018-11-04T03:48:56.282Z,6.60
2018-11-04T03:49:59.646Z,6.60
2018-11-04T03:51:02.959Z,6.60
2018-11-04T03:52:06.480Z,6.60
2018-11-04T03:53:09.826Z,6.60
2018-11-04T03:54:13.164Z,6.60
2018-11-04T03:55:16.500Z,6.60
2018-11-04T03:56:19.817Z,6.60
2018-11-04T03:57:23.125Z,6.60
2018-11-04T03:58:26.476Z,6.60
2018-11-04T03:59:29.788Z,6.60
2018-11-04T04:00:33.191Z,6.70
2018-11-04T04:01:36.529Z,6.70
2018-11-04T04:02:40.031Z,6.70
2018-11-04T04:03:43.344Z,6.60
2018-11-04T04:04:46.677Z,6.60
2018-11-04T04:05:50.016Z,6.60
2018-11-04T04:06:53.368Z,6.60
2018-11-04T04:07:56.763Z,6.70
2018-11-04T04:09:00.084Z,6.60
2018-11-04T04:10:03.454Z,6.60
2018-11-04T04:11:06.855Z,6.50
2018-11-04T04:12:10.176Z,6.50
2018-11-04T04:13:13.492Z,6.50
2018-11-04T04:14:16.799Z,6.50
2018-11-04T04:15:20.125Z,6.50
2018-11-04T04:16:23.535Z,6.50
2018-11-04T04:17:26.860Z,6.50
2018-11-04T04:18:30.179Z,6.50
2018-11-04T04:19:33.524Z,6.60
2018-11-04T04:20:36.860Z,6.60
2018-11-04T04:21:40.182Z,6.60
2018-11-04T04:22:43.496Z,6.70
2018-11-04T04:23:46.871Z,6.70
2018-11-04T04:24:50.196Z,6.70
2018-11-04T04:25:53.514Z,6.70
2018-11-04T04:26:56.835Z,6.70
2018-11-04T04:28:00.147Z,6.70
2018-11-04T04:29:03.529Z,6.70
2018-11-04T04:30:09.178Z,6.60
2018-11-04T04:31:12.486Z,6.70
2018-11-04T04:32:15.804Z,6.70
2018-11-04T04:33:19.127Z,6.70
2018-11-04T04:34:22.471Z,6.70
2018-11-04T04:35:25.797Z,6.70
2018-11-04T04:36:29.123Z,6.70
2018-11-04T04:37:32.467Z,6.80
2018-11-04T04:38:35.843Z,6.80
2018-11-04T04:39:39.180Z,6.80
2018-11-04T04:40:42.527Z,6.80
2018-11-04T04:41:45.907Z,6.80
2018-11-04T04:42:49.220Z,6.80
2018-11-04T04:43:52.531Z,6.80
2018-11-04T04:44:55.880Z,6.80
2018-11-04T04:45:59.202Z,6.80
2018-11-04T04:47:02.589Z,6.90
2018-11-04T04:48:05.946Z,6.90
2018-11-04T04:49:09.295Z,6.90
2018-11-04T04:50:12.639Z,6.80
2018-11-04T04:51:15.944Z,6.80
2018-11-04T04:52:19.323Z,6.80
2018-11-04T04:53:24.775Z,6.70
2018-11-04T04:54:28.102Z,6.70
2018-11-04T04:55:31.413Z,6.70
2018-11-04T04:56:34.719Z,6.70
2018-11-04T04:57:38.079Z,6.70
2018-11-04T04:58:41.395Z,6.70
2018-11-04T04:59:44.723Z,6.60
2018-11-04T05:00:48.041Z,6.60
2018-11-04T05:01:51.355Z,6.60
2018-11-04T05:02:54.699Z,6.60
2018-11-04T05:03:58.015Z,6.70
2018-11-04T05:05:01.341Z,6.70
2018-11-04T05:06:04.679Z,6.80
2018-11-04T05:07:08.006Z,6.70
2018-11-04T05:08:11.324Z,6.80
2018-11-04T05:09:14.695Z,6.80
2018-11-04T05:10:18.005Z,6.90
2018-11-04T05:11:21.397Z,6.90
2018-11-04T05:12:24.706Z,6.90
2018-11-04T05:13:28.021Z,6.80
2018-11-04T05:14:31.341Z,6.90
2018-11-04T05:15:34.659Z,6.90
2018-11-04T05:16:38.000Z,6.90
2018-11-04T05:17:41.307Z,6.90
2018-11-04T05:18:44.630Z,6.90
2018-11-04T05:19:47.951Z,6.90
2018-11-04T05:20:51.262Z,6.90
2018-11-04T05:21:54.607Z,6.90
2018-11-04T05:22:57.911Z,6.80
2018-11-04T05:24:01.343Z,6.80
2018-11-04T05:25:05.465Z,6.80
2018-11-04T05:26:08.865Z,6.90
2018-11-04T05:27:12.199Z,6.90
2018-11-04T05:28:15.556Z,6.90
2018-11-04T05:29:18.880Z,6.90
2018-11-04T05:30:22.201Z,6.80
2018-11-04T05:31:25.558Z,6.80
2018-11-04T05:32:28.988Z,6.80
2018-11-04T05:33:32.307Z,6.80
2018-11-04T05:34:35.634Z,6.80
2018-11-04T05:35:38.943Z,6.80
2018-11-04T05:36:42.286Z,6.80
2018-11-04T05:37:45.615Z,6.90
2018-11-04T05:38:48.959Z,6.90
2018-11-04T05:39:52.270Z,7.00
2018-11-04T05:40:55.812Z,6.90
2018-11-04T05:41:59.198Z,6.90
2018-11-04T05:43:02.507Z,6.90
2018-11-04T05:44:05.855Z,7.00
2018-11-04T05:45:09.465Z,7.00
2018-11-04T05:46:12.775Z,7.10
2018-11-04T05:47:16.107Z,7.00
2018-11-04T05:48:19.419Z,7.00
2018-11-04T05:49:22.767Z,7.00
2018-11-04T05:50:26.072Z,7.00
2018-11-04T05:51:29.377Z,7.00
2018-11-04T05:52:32.696Z,7.00
2018-11-04T05:53:38.998Z,7.00
2018-11-04T05:54:42.348Z,6.90
2018-11-04T05:55:45.669Z,6.90
2018-11-04T05:56:49.009Z,6.90
2018-11-04T05:57:52.324Z,7.00
2018-11-04T05:58:55.678Z,6.90
2018-11-04T05:59:58.999Z,6.90
2018-11-04T06:01:02.364Z,6.80
2018-11-04T06:02:06.203Z,6.90
2018-11-04T06:03:09.543Z,6.90
2018-11-04T06:04:12.863Z,6.90
2018-11-04T06:05:16.180Z,6.90
2018-11-04T06:06:19.523Z,6.90
2018-11-04T06:07:22.837Z,6.90
2018-11-04T06:08:26.196Z,7.00
2018-11-04T06:09:29.569Z,7.00
2018-11-04T06:10:32.883Z,7.00
2018-11-04T06:11:36.218Z,7.00
2018-11-04T06:12:39.543Z,7.00
2018-11-04T06:13:42.876Z,7.00
2018-11-04T06:14:46.232Z,7.00
2018-11-04T06:15:49.584Z,7.00
2018-11-04T06:16:52.903Z,7.00
2018-11-04T06:17:56.224Z,7.10
2018-11-04T06:18:59.556Z,7.00
2018-11-04T06:20:02.887Z,7.00
2018-11-04T06:21:06.456Z,7.10
2018-11-04T06:22:10.031Z,7.00
2018-11-04T06:23:13.353Z,7.10
2018-11-04T06:24:16.683Z,7.10
2018-11-04T06:25:20.007Z,7.00
2018-11-04T06:26:23.362Z,7.10
2018-11-04T06:27:26.681Z,7.10
2018-11-04T06:28:30.119Z,7.10
2018-11-04T06:29:33.460Z,7.10
2018-11-04T06:30:36.807Z,7.00
2018-11-04T06:31:40.165Z,7.10
2018-11-04T06:32:43.879Z,7.10
2018-11-04T06:33:47.244Z,7.10
2018-11-04T06:34:50.561Z,7.00
2018-11-04T06:35:53.945Z,7.00
2018-11-04T06:36:57.268Z,7.10
2018-11-04T06:38:00.615Z,7.10
2018-11-04T06:39:05.030Z,7.10
2018-11-04T06:40:09.159Z,7.10
2018-11-04T06:41:12.527Z,7.10
2018-11-04T06:42:15.803Z,7.10
2018-11-04T06:43:19.151Z,7.10
2018-11-04T06:44:22.456Z,7.20
2018-11-04T06:45:25.783Z,7.20
2018-11-04T06:46:29.127Z,7.20
2018-11-04T06:47:32.473Z,7.20
2018-11-04T06:48:35.837Z,7.20
2018-11-04T06:49:39.193Z,7.20
2018-11-04T06:50:42.535Z,7.30
2018-11-04T06:51:45.871Z,7.40
2018-11-04T06:52:49.253Z,7.30
2018-11-04T06:53:52.598Z,7.30
2018-11-04T06:54:55.911Z,7.40
2018-11-04T06:55:59.226Z,7.30
2018-11-04T06:57:02.539Z,7.40
2018-11-04T06:58:06.408Z,7.40
2018-11-04T06:59:09.760Z,7.40
2018-11-04T07:00:13.080Z,7.50
2018-11-04T07:01:16.427Z,7.50
2018-11-04T07:02:19.751Z,7.50
2018-11-04T07:03:23.059Z,7.50
2018-11-04T07:04:27.755Z,7.60
2018-11-04T07:05:31.071Z,7.60
2018-11-04T07:06:34.379Z,7.70
2018-11-04T07:07:37.701Z,7.70
2018-11-04T07:08:41.051Z,7.80
2018-11-04T07:09:44.385Z,7.80
2018-11-04T07:10:47.731Z,7.60
2018-11-04T07:11:51.075Z,7.60
2018-11-04T07:12:54.427Z,7.60
2018-11-04T07:13:57.746Z,7.60
2018-11-04T07:15:01.064Z,7.50
2018-11-04T07:16:04.404Z,7.60
2018-11-04T07:17:07.724Z,7.40
2018-11-04T07:18:11.060Z,7.40
2018-11-04T07:19:15.155Z,7.50
2018-11-04T07:20:18.470Z,7.60
2018-11-04T07:21:21.818Z,7.50
2018-11-04T07:22:25.119Z,7.50
2018-11-04T07:23:28.451Z,7.50
2018-11-04T07:24:31.766Z,7.60
2018-11-04T07:25:35.121Z,7.60
2018-11-04T07:26:38.468Z,7.60
2018-11-04T07:27:41.804Z,7.60
2018-11-04T07:28:45.138Z,7.60
2018-11-04T07:29:48.454Z,7.60
2018-11-04T07:30:51.771Z,7.70
2018-11-04T07:31:55.131Z,7.70
2018-11-04T07:32:58.478Z,7.70
2018-11-04T07:34:01.796Z,7.70
2018-11-04T07:35:05.607Z,7.70
2018-11-04T07:36:08.941Z,7.70
2018-11-04T07:37:12.284Z,7.70
2018-11-04T07:38:15.591Z,7.70
2018-11-04T07:39:18.956Z,7.70
2018-11-04T07:40:22.926Z,7.80
2018-11-04T07:41:26.331Z,7.70
2018-11-04T07:42:29.784Z,7.80
2018-11-04T07:43:33.108Z,7.80
2018-11-04T07:44:36.494Z,7.90
2018-11-04T07:45:39.811Z,7.90
2018-11-04T07:46:43.127Z,7.90
2018-11-04T07:47:46.448Z,7.90
2018-11-04T07:48:49.868Z,7.90
2018-11-04T07:49:53.276Z,7.80
2018-11-04T07:50:56.601Z,7.90
2018-11-04T07:51:59.924Z,7.80
2018-11-04T07:53:03.248Z,7.90
2018-11-04T07:54:06.660Z,7.90
2018-11-04T07:55:10.258Z,7.90
2018-11-04T07:56:14.068Z,7.80
2018-11-04T07:57:17.401Z,7.80
2018-11-04T07:58:20.756Z,7.80
2018-11-04T07:59:24.085Z,7.90
2018-11-04T08:00:27.442Z,8.00
2018-11-04T08:01:30.811Z,7.90
2018-11-04T08:02:34.172Z,8.00
2018-11-04T08:03:37.505Z,8.10
2018-11-04T08:04:40.839Z,8.00
2018-11-04T08:05:44.192Z,8.00
2018-11-04T08:06:47.520Z,8.10
2018-11-04T08:07:50.867Z,8.10
2018-11-04T08:08:54.192Z,8.10
2018-11-04T08:09:57.524Z,8.10
2018-11-04T08:11:00.913Z,8.10
2018-11-04T08:12:04.341Z,8.10
2018-11-04T08:13:07.660Z,8.10
2018-11-04T08:14:10.975Z,8.10
2018-11-04T08:15:14.404Z,8.10
2018-11-04T08:16:17.769Z,8.10
2018-11-04T08:17:21.135Z,8.10
2018-11-04T08:18:24.464Z,8.20
2018-11-04T08:19:27.788Z,8.30
2018-11-04T08:20:31.108Z,8.40
2018-11-04T08:21:34.438Z,8.50
2018-11-04T08:22:37.815Z,8.70
2018-11-04T08:23:41.140Z,8.70
2018-11-04T08:24:44.460Z,8.80
2018-11-04T08:25:47.819Z,8.90
2018-11-04T08:26:51.171Z,9.00
2018-11-04T08:27:54.566Z,9.00
2018-11-04T08:28:57.855Z,9.10
2018-11-04T08:30:01.180Z,9.20
2018-11-04T08:31:04.550Z,9.20
2018-11-04T08:32:07.887Z,9.20
2018-11-04T08:33:11.248Z,9.20
2018-11-04T08:34:14.627Z,9.30
2018-11-04T08:35:17.972Z,9.30
2018-11-04T08:36:21.323Z,9.30
2018-11-04T08:37:25.182Z,9.40
2018-11-04T08:38:28.535Z,9.50
2018-11-04T08:39:31.950Z,9.50
2018-11-04T08:40:35.212Z,9.50
2018-11-04T08:41:38.763Z,9.50
2018-11-04T08:42:42.108Z,9.50
2018-11-04T08:43:45.476Z,9.50
2018-11-04T08:44:48.809Z,9.60
2018-11-04T08:45:52.213Z,9.60
2018-11-04T08:46:55.544Z,9.70
2018-11-04T08:47:58.880Z,9.70
2018-11-04T08:49:02.207Z,9.80
2018-11-04T08:50:06.980Z,9.80
2018-11-04T08:51:10.308Z,9.90
2018-11-04T08:52:13.666Z,9.90
2018-11-04T08:53:17.028Z,9.90
2018-11-04T08:54:20.391Z,9.90
2018-11-04T08:55:23.747Z,9.90
2018-11-04T08:56:27.076Z,9.90
2018-11-04T08:57:30.425Z,9.90
2018-11-04T08:58:33.756Z,9.80
2018-11-04T08:59:38.168Z,9.80
2018-11-04T09:00:41.474Z,9.90
2018-11-04T09:01:44.808Z,10.00
2018-11-04T09:02:48.150Z,10.00
2018-11-04T09:03:51.479Z,10.10
2018-11-04T09:04:54.807Z,10.10
2018-11-04T09:05:58.129Z,10.10
2018-11-04T09:07:01.468Z,10.10
2018-11-04T09:08:05.064Z,10.10
2018-11-04T09:09:08.419Z,10.10
2018-11-04T09:10:13.845Z,10.20
2018-11-04T09:11:17.258Z,10.20
2018-11-04T09:12:20.616Z,10.20
2018-11-04T09:13:23.935Z,10.30
2018-11-04T09:14:27.321Z,10.30
2018-11-04T09:15:30.613Z,10.30
2018-11-04T09:16:33.931Z,10.30
2018-11-04T09:17:37.283Z,10.30
2018-11-04T09:18:40.742Z,10.40
2018-11-04T09:19:44.099Z,10.30
2018-11-04T09:20:47.432Z,10.40
2018-11-04T09:21:50.878Z,10.40
2018-11-04T09:22:54.147Z,10.50
2018-11-04T09:23:57.479Z,10.50
2018-11-04T09:25:00.788Z,10.50
2018-11-04T09:26:04.334Z,10.50
2018-11-04T09:27:07.655Z,10.60
2018-11-04T09:28:11.007Z,10.50
2018-11-04T09:29:14.434Z,10.60
2018-11-04T09:30:17.795Z,10.60
2018-11-04T09:31:21.163Z,10.70
2018-11-04T09:32:24.483Z,10.70
2018-11-04T09:33:27.843Z,10.80
2018-11-04T09:34:31.213Z,10.80
2018-11-04T09:35:34.750Z,10.80
2018-11-04T09:36:37.960Z,10.80
2018-11-04T09:37:41.259Z,10.80
2018-11-04T09:38:44.574Z,10.80
2018-11-04T09:39:47.919Z,10.90
2018-11-04T09:40:51.239Z,10.90
2018-11-04T09:41:54.575Z,10.90
2018-11-04T09:42:57.894Z,10.80
2018-11-04T09:44:01.243Z,10.70
2018-11-04T09:45:04.768Z,10.80
2018-11-04T09:46:08.125Z,10.80
2018-11-04T09:47:11.503Z,10.80
2018-11-04T09:48:14.879Z,10.80
2018-11-04T09:49:18.203Z,10.80
2018-11-04T09:50:21.539Z,10.90
2018-11-04T09:51:24.909Z,10.90
2018-11-04T09:52:28.232Z,10.90
2018-11-04T09:53:31.563Z,10.90
2018-11-04T09:54:34.908Z,10.90
2018-11-04T09:55:38.311Z,10.90
2018-11-04T09:56:41.698Z,10.90
2018-11-04T09:57:45.007Z,10.90
2018-11-04T09:58:48.340Z,10.90
2018-11-04T09:59:51.668Z,10.90
2018-11-04T10:00:55.048Z,11.00
2018-11-04T10:01:58.431Z,11.00
2018-11-04T10:03:01.754Z,11.10
2018-11-04T10:04:05.503Z,11.10
2018-11-04T10:05:09.719Z,11.10
2018-11-04T10:06:13.067Z,11.10
2018-11-04T10:07:16.491Z,11.10
2018-11-04T10:08:19.830Z,11.10
2018-11-04T10:09:23.225Z,11.20
2018-11-04T10:10:26.555Z,11.30
2018-11-04T10:11:29.887Z,11.30
2018-11-04T10:12:33.219Z,11.30
2018-11-04T10:13:36.531Z,11.40
2018-11-04T10:14:39.900Z,11.40
2018-11-04T10:15:43.218Z,11.40
2018-11-04T10:16:46.552Z,11.50
2018-11-04T10:17:49.915Z,11.50
2018-11-04T10:18:53.342Z,11.50
2018-11-04T10:19:56.994Z,11.50
2018-11-04T10:21:00.212Z,11.40
2018-11-04T10:22:03.308Z,11.30
2018-11-04T10:23:13.404Z,11.30
2018-11-04T10:24:16.730Z,11.30
2018-11-04T10:25:20.068Z,11.20
2018-11-04T10:26:23.460Z,11.10
2018-11-04T10:27:26.836Z,11.10
2018-11-04T10:28:30.183Z,11.10
2018-11-04T10:29:33.511Z,11.00
2018-11-04T10:30:36.863Z,11.00
2018-11-04T10:31:40.272Z,11.00
2018-11-04T10:32:43.663Z,11.00
2018-11-04T10:33:46.971Z,11.10
2018-11-04T10:34:50.299Z,11.10
2018-11-04T10:35:53.656Z,11.20
2018-11-04T10:36:57.044Z,11.30
2018-11-04T10:38:00.380Z,11.40
2018-11-04T10:39:05.139Z,11.50
2018-11-04T10:40:10.159Z,11.50
2018-11-04T10:41:13.471Z,11.50
2018-11-04T10:42:16.884Z,11.50
2018-11-04T10:43:20.207Z,11.50
2018-11-04T10:44:23.519Z,11.40
2018-11-04T10:45:26.856Z,11.50
2018-11-04T10:46:30.176Z,11.50
2018-11-04T10:47:33.699Z,11.50
2018-11-04T10:48:37.020Z,11.50
2018-11-04T10:49:40.446Z,11.60
2018-11-04T10:50:43.752Z,11.50
2018-11-04T10:51:47.124Z,11.50
2018-11-04T10:52:50.443Z,11.50
2018-11-04T10:53:53.832Z,11.50
2018-11-04T10:54:57.210Z,11.50
2018-11-04T10:56:00.552Z,11.50
2018-11-04T10:57:04.004Z,11.50
2018-11-04T10:58:07.324Z,11.50
2018-11-04T10:59:10.641Z,11.50
2018-11-04T11:00:19.277Z,11.50
2018-11-04T11:01:22.594Z,11.50
2018-11-04T11:02:25.922Z,11.40
2018-11-04T11:03:29.277Z,11.40
2018-11-04T11:04:32.614Z,11.30
2018-11-04T11:05:35.999Z,11.30
2018-11-04T11:06:39.327Z,11.30
2018-11-04T11:07:42.659Z,11.30
2018-11-04T11:08:45.982Z,11.30
2018-11-04T11:09:49.348Z,11.30
2018-11-04T11:10:52.740Z,11.20
2018-11-04T11:11:56.055Z,11.20
2018-11-04T11:12:59.370Z,11.20
2018-11-04T11:14:02.712Z,11.20
2018-11-04T11:15:06.768Z,11.30
2018-11-04T11:16:10.141Z,11.20
2018-11-04T11:17:13.469Z,11.20
2018-11-04T11:18:16.793Z,11.30
2018-11-04T11:19:20.115Z,11.30
2018-11-04T11:20:23.428Z,11.40
2018-11-04T11:21:26.816Z,11.40
2018-11-04T11:22:30.204Z,11.50
2018-11-04T11:23:33.504Z,11.50
2018-11-04T11:24:36.845Z,11.60
2018-11-04T11:25:40.182Z,11.60
2018-11-04T11:26:43.543Z,11.60
2018-11-04T11:27:46.889Z,11.60
2018-11-04T11:28:50.202Z,11.60
2018-11-04T11:29:53.575Z,11.50
2018-11-04T11:30:56.884Z,11.60
2018-11-04T11:32:00.263Z,11.60
2018-11-04T11:33:03.698Z,11.50
2018-11-04T11:34:07.087Z,11.40
2018-11-04T11:35:10.411Z,11.40
2018-11-04T11:36:13.773Z,11.40
2018-11-04T11:37:17.137Z,11.40
2018-11-04T11:38:20.560Z,11.40
2018-11-04T11:39:23.879Z,11.40
2018-11-04T11:40:27.200Z,11.40
2018-11-04T11:41:30.559Z,11.40
2018-11-04T11:42:33.873Z,11.50
2018-11-04T11:43:37.208Z,11.50
2018-11-04T11:44:40.592Z,11.50
2018-11-04T11:45:43.891Z,11.40
2018-11-04T11:46:47.268Z,11.40
2018-11-04T11:47:50.595Z,11.40
2018-11-04T11:48:53.947Z,11.30
2018-11-04T11:49:57.276Z,11.40
2018-11-04T11:51:00.605Z,11.40
2018-11-04T11:52:04.028Z,11.40
2018-11-04T11:53:07.342Z,11.40
2018-11-04T11:54:10.666Z,11.40
2018-11-04T11:55:13.991Z,11.40
2018-11-04T11:56:17.324Z,11.30
2018-11-04T11:57:20.719Z,11.30
2018-11-04T11:58:24.039Z,11.30
2018-11-04T11:59:27.477Z,11.20
2018-11-04T12:00:30.755Z,11.20
2018-11-04T12:01:34.189Z,11.10
2018-11-04T12:02:38.172Z,11.10
2018-11-04T12:03:41.495Z,11.20
2018-11-04T12:04:44.878Z,11.10
2018-11-04T12:05:48.208Z,11.20
2018-11-04T12:06:51.605Z,11.10
2018-11-04T12:07:54.955Z,11.10
2018-11-04T12:08:58.271Z,11.20
2018-11-04T12:10:01.612Z,11.20
2018-11-04T12:11:05.668Z,11.20
2018-11-04T12:12:09.045Z,11.20
2018-11-04T12:13:12.372Z,11.30
2018-11-04T12:14:15.692Z,11.20
2018-11-04T12:15:19.013Z,11.20
2018-11-04T12:16:22.338Z,11.20
2018-11-04T12:17:25.714Z,11.20
2018-11-04T12:18:29.056Z,11.20
2018-11-04T12:19:32.392Z,11.20
2018-11-04T12:20:35.722Z,11.20
2018-11-04T12:21:39.109Z,11.20
2018-11-04T12:22:42.608Z,11.10
2018-11-04T12:23:45.992Z,11.10
2018-11-04T12:24:49.320Z,11.10
2018-11-04T12:25:52.648Z,11.10
2018-11-04T12:26:55.999Z,11.10
2018-11-04T12:27:59.502Z,11.10
2018-11-04T12:29:02.831Z,11.10
2018-11-04T12:30:08.467Z,11.10
2018-11-04T12:31:11.903Z,11.10
2018-11-04T12:32:15.306Z,11.00
2018-11-04T12:33:18.692Z,11.00
2018-11-04T12:34:22.011Z,10.90
2018-11-04T12:35:25.465Z,10.90
2018-11-04T12:36:28.695Z,10.90
2018-11-04T12:37:32.056Z,10.90
2018-11-04T12:38:35.486Z,10.90
2018-11-04T12:39:38.821Z,11.00
2018-11-04T12:40:42.152Z,10.90
2018-11-04T12:41:45.483Z,11.00
2018-11-04T12:42:48.825Z,11.00
2018-11-04T12:43:52.211Z,11.00
2018-11-04T12:44:55.518Z,11.00
2018-11-04T12:45:58.851Z,11.10
2018-11-04T12:47:02.220Z,11.10
2018-11-04T12:48:05.603Z,11.20
2018-11-04T12:49:08.984Z,11.10
2018-11-04T12:50:13.116Z,11.20
2018-11-04T12:51:16.457Z,11.20
2018-11-04T12:52:19.828Z,11.20
2018-11-04T12:53:23.148Z,11.20
2018-11-04T12:54:26.532Z,11.30
2018-11-04T12:55:29.858Z,11.30
2018-11-04T12:56:33.175Z,11.30
2018-11-04T12:57:36.612Z,11.30
2018-11-04T12:58:39.927Z,11.30
2018-11-04T12:59:43.307Z,11.30
2018-11-04T13:00:46.643Z,11.30
2018-11-04T13:01:50.052Z,11.30
2018-11-04T13:02:53.468Z,11.30
2018-11-04T13:03:56.795Z,11.30
2018-11-04T13:05:00.118Z,11.40
2018-11-04T13:06:03.436Z,11.40
2018-11-04T13:07:06.888Z,11.40
2018-11-04T13:08:10.260Z,11.40
2018-11-04T13:09:13.617Z,11.30
2018-11-04T13:10:16.996Z,11.30
2018-11-04T13:11:20.372Z,11.30
2018-11-04T13:12:23.672Z,11.40
2018-11-04T13:13:27.120Z,11.30
2018-11-04T13:14:30.447Z,11.30
2018-11-04T13:15:33.808Z,11.30
2018-11-04T13:16:37.123Z,11.30
2018-11-04T13:17:40.618Z,11.30
2018-11-04T13:18:43.996Z,11.30
2018-11-04T13:19:47.320Z,11.20
2018-11-04T13:20:50.631Z,11.20
2018-11-04T13:21:53.955Z,11.20
2018-11-04T13:22:57.285Z,11.30
2018-11-04T13:24:00.664Z,11.30
2018-11-04T13:25:04.035Z,11.40
2018-11-04T13:26:07.385Z,11.50
2018-11-04T13:27:10.782Z,11.50
2018-11-04T13:28:14.093Z,11.50
2018-11-04T13:29:17.512Z,11.50
2018-11-04T13:30:20.829Z,11.40
2018-11-04T13:31:24.151Z,11.40
2018-11-04T13:32:27.660Z,11.40
2018-11-04T13:33:30.999Z,11.30
2018-11-04T13:34:34.355Z,11.30
2018-11-04T13:35:37.672Z,11.30
2018-11-04T13:36:41.031Z,11.30
2018-11-04T13:37:44.351Z,11.30
2018-11-04T13:38:47.660Z,11.30
2018-11-04T13:39:50.992Z,11.30
2018-11-04T13:40:54.611Z,11.40
2018-11-04T13:41:57.966Z,11.50
2018-11-04T13:43:01.331Z,11.50
2018-11-04T13:44:04.715Z,11.50
2018-11-04T13:45:08.556Z,11.60
2018-11-04T13:46:11.928Z,11.60
2018-11-04T13:47:15.287Z,11.50
2018-11-04T13:48:18.643Z,11.50
2018-11-04T13:49:21.979Z,11.50
2018-11-04T13:50:25.306Z,11.40
2018-11-04T13:51:28.779Z,11.40
2018-11-04T13:52:32.128Z,11.40
2018-11-04T13:53:35.467Z,11.50
2018-11-04T13:54:38.802Z,11.50
2018-11-04T13:55:42.166Z,11.50